sensor_id;sensor_type;location;lat;lon;timestamp;temperature;humidity
7143;DHT22;3613;48.902;9.204;2022-08-21T00:02:25;14.20;99.90
7143;DHT22;3613;48.902;9.204;2022-08-21T00:04:51;14.20;99.90
7143;DHT22;3613;48.902;9.204;2022-08-21T00:07:22;14.20;99.90
7143;DHT22;3613;48.902;9.204;2022-08-21T00:09:48;14.20;99.90
7143;DHT22;3613;48.902;9.204;2022-08-21T00:12:15;14.20;99.90
7143;DHT22;3613;48.902;9.204;2022-08-21T00:14:41;14.10;99.90
7143;DHT22;3613;48.902;9.204;2022-08-21T00:17:09;14.10;99.90
7143;DHT22;3613;48.902;9.204;2022-08-21T00:19:34;14.00;99.90
7143;DHT22;3613;48.902;9.204;2022-08-21T00:22:00;13.90;99.90
7143;DHT22;3613;48.902;9.204;2022-08-21T00:24:26;13.80;99.90
7143;DHT22;3613;48.902;9.204;2022-08-21T00:26:52;13.80;99.90
7143;DHT22;3613;48.902;9.204;2022-08-21T00:29:19;13.90;99.90
7143;DHT22;3613;48.902;9.204;2022-08-21T00:31:44;13.80;99.90
7143;DHT22;3613;48.902;9.204;2022-08-21T00:34:11;13.90;99.90
7143;DHT22;3613;48.902;9.204;2022-08-21T00:36:37;13.80;99.90
7143;DHT22;3613;48.902;9.204;2022-08-21T00:39:05;13.80;99.90
7143;DHT22;3613;48.902;9.204;2022-08-21T00:41:31;13.70;99.90
7143;DHT22;3613;48.902;9.204;2022-08-21T00:43:57;13.60;99.90
7143;DHT22;3613;48.902;9.204;2022-08-21T00:46:26;13.60;99.90
7143;DHT22;3613;48.902;9.204;2022-08-21T00:48:51;13.60;99.90
7143;DHT22;3613;48.902;9.204;2022-08-21T00:51:20;13.60;99.90
7143;DHT22;3613;48.902;9.204;2022-08-21T00:53:56;13.60;99.90
7143;DHT22;3613;48.902;9.204;2022-08-21T00:56:25;13.50;99.90
7143;DHT22;3613;48.902;9.204;2022-08-21T00:58:52;13.50;99.90
7143;DHT22;3613;48.902;9.204;2022-08-21T01:01:19;13.50;99.90
7143;DHT22;3613;48.902;9.204;2022-08-21T01:03:45;13.50;99.90
7143;DHT22;3613;48.902;9.204;2022-08-21T01:06:11;13.50;99.90
7143;DHT22;3613;48.902;9.204;2022-08-21T01:08:39;13.60;99.90
7143;DHT22;3613;48.902;9.204;2022-08-21T01:11:05;13.60;99.90
7143;DHT22;3613;48.902;9.204;2022-08-21T01:13:34;13.60;99.90
7143;DHT22;3613;48.902;9.204;2022-08-21T01:16:04;13.50;99.90
7143;DHT22;3613;48.902;9.204;2022-08-21T01:18:30;13.40;99.90
7143;DHT22;3613;48.902;9.204;2022-08-21T01:21:11;13.30;99.90
7143;DHT22;3613;48.902;9.204;2022-08-21T01:23:41;13.30;99.90
7143;DHT22;3613;48.902;9.204;2022-08-21T01:26:08;13.20;99.90
7143;DHT22;3613;48.902;9.204;2022-08-21T01:28:44;13.20;99.90
7143;DHT22;3613;48.902;9.204;2022-08-21T01:31:12;13.20;99.90
7143;DHT22;3613;48.902;9.204;2022-08-21T01:33:41;13.20;99.90
7143;DHT22;3613;48.902;9.204;2022-08-21T01:36:09;13.20;99.90
7143;DHT22;3613;48.902;9.204;2022-08-21T01:38:35;13.10;99.90
7143;DHT22;3613;48.902;9.204;2022-08-21T01:41:03;13.10;99.90
7143;DHT22;3613;48.902;9.204;2022-08-21T01:43:31;13.00;99.90
7143;DHT22;3613;48.902;9.204;2022-08-21T01:45:57;12.90;99.90
7143;DHT22;3613;48.902;9.204;2022-08-21T01:48:22;13.00;99.90
7143;DHT22;3613;48.902;9.204;2022-08-21T01:50:50;12.90;99.90
7143;DHT22;3613;48.902;9.204;2022-08-21T01:53:16;12.90;99.90
7143;DHT22;3613;48.902;9.204;2022-08-21T01:55:43;12.80;99.90
7143;DHT22;3613;48.902;9.204;2022-08-21T01:58:08;12.80;99.90
7143;DHT22;3613;48.902;9.204;2022-08-21T02:00:34;12.90;99.90
7143;DHT22;3613;48.902;9.204;2022-08-21T02:03:00;13.00;99.90
7143;DHT22;3613;48.902;9.204;2022-08-21T02:05:26;13.10;99.90
7143;DHT22;3613;48.902;9.204;2022-08-21T02:07:55;13.10;99.90
7143;DHT22;3613;48.902;9.204;2022-08-21T02:10:27;13.00;99.90
7143;DHT22;3613;48.902;9.204;2022-08-21T02:12:54;13.00;99.90
7143;DHT22;3613;48.902;9.204;2022-08-21T02:15:20;13.00;99.90
7143;DHT22;3613;48.902;9.204;2022-08-21T02:17:58;13.00;99.90
7143;DHT22;3613;48.902;9.204;2022-08-21T02:20:32;13.10;99.90
7143;DHT22;3613;48.902;9.204;2022-08-21T02:23:01;13.00;99.90
7143;DHT22;3613;48.902;9.204;2022-08-21T02:25:28;13.00;99.90
7143;DHT22;3613;48.902;9.204;2022-08-21T02:27:56;12.90;99.90
7143;DHT22;3613;48.902;9.204;2022-08-21T02:30:30;12.90;99.90
7143;DHT22;3613;48.902;9.204;2022-08-21T02:32:57;12.90;99.90
7143;DHT22;3613;48.902;9.204;2022-08-21T02:35:23;12.90;99.90
7143;DHT22;3613;48.902;9.204;2022-08-21T02:37:58;12.80;99.90
7143;DHT22;3613;48.902;9.204;2022-08-21T02:40:27;12.90;99.90
7143;DHT22;3613;48.902;9.204;2022-08-21T02:42:53;12.80;99.90
7143;DHT22;3613;48.902;9.204;2022-08-21T02:45:19;12.70;99.90
7143;DHT22;3613;48.902;9.204;2022-08-21T02:47:53;12.70;99.90
7143;DHT22;3613;48.902;9.204;2022-08-21T02:50:40;12.80;99.90
7143;DHT22;3613;48.902;9.204;2022-08-21T02:53:07;12.80;99.90
7143;DHT22;3613;48.902;9.204;2022-08-21T02:55:36;12.70;99.90
7143;DHT22;3613;48.902;9.204;2022-08-21T02:58:04;12.70;99.90
7143;DHT22;3613;48.902;9.204;2022-08-21T03:00:31;12.60;99.90
7143;DHT22;3613;48.902;9.204;2022-08-21T03:02:58;12.50;99.90
7143;DHT22;3613;48.902;9.204;2022-08-21T03:05:26;12.50;99.90
7143;DHT22;3613;48.902;9.204;2022-08-21T03:07:52;12.50;99.90
7143;DHT22;3613;48.902;9.204;2022-08-21T03:10:21;12.50;99.90
7143;DHT22;3613;48.902;9.204;2022-08-21T03:12:48;12.40;99.90
7143;DHT22;3613;48.902;9.204;2022-08-21T03:15:15;12.40;99.90
7143;DHT22;3613;48.902;9.204;2022-08-21T03:17:42;12.40;99.90
7143;DHT22;3613;48.902;9.204;2022-08-21T03:20:09;12.70;99.90
7143;DHT22;3613;48.902;9.204;2022-08-21T03:22:35;12.40;99.90
7143;DHT22;3613;48.902;9.204;2022-08-21T03:25:00;12.70;99.90
7143;DHT22;3613;48.902;9.204;2022-08-21T03:27:28;12.40;99.90
7143;DHT22;3613;48.902;9.204;2022-08-21T03:29:54;12.40;99.90
7143;DHT22;3613;48.902;9.204;2022-08-21T03:32:20;12.30;99.90
7143;DHT22;3613;48.902;9.204;2022-08-21T03:34:49;12.30;99.90
7143;DHT22;3613;48.902;9.204;2022-08-21T03:37:15;12.40;99.90
7143;DHT22;3613;48.902;9.204;2022-08-21T03:39:41;12.50;99.90
7143;DHT22;3613;48.902;9.204;2022-08-21T03:42:07;12.50;99.90
7143;DHT22;3613;48.902;9.204;2022-08-21T03:44:36;12.50;99.90
7143;DHT22;3613;48.902;9.204;2022-08-21T03:47:05;12.50;99.90
7143;DHT22;3613;48.902;9.204;2022-08-21T03:49:31;12.60;99.90
7143;DHT22;3613;48.902;9.204;2022-08-21T03:51:56;12.50;99.90
7143;DHT22;3613;48.902;9.204;2022-08-21T03:54:24;12.40;99.90
7143;DHT22;3613;48.902;9.204;2022-08-21T03:56:50;12.30;99.90
7143;DHT22;3613;48.902;9.204;2022-08-21T03:59:17;12.30;99.90
7143;DHT22;3613;48.902;9.204;2022-08-21T04:01:59;12.40;99.90
7143;DHT22;3613;48.902;9.204;2022-08-21T04:04:27;12.50;99.90
7143;DHT22;3613;48.902;9.204;2022-08-21T04:06:52;12.30;99.90
7143;DHT22;3613;48.902;9.204;2022-08-21T04:09:18;12.30;99.90
7143;DHT22;3613;48.902;9.204;2022-08-21T04:11:44;12.30;99.90
7143;DHT22;3613;48.902;9.204;2022-08-21T04:14:11;12.20;99.90
7143;DHT22;3613;48.902;9.204;2022-08-21T04:16:37;12.30;99.90
7143;DHT22;3613;48.902;9.204;2022-08-21T04:19:03;12.10;99.90
7143;DHT22;3613;48.902;9.204;2022-08-21T04:21:29;12.20;99.90
7143;DHT22;3613;48.902;9.204;2022-08-21T04:23:55;12.10;99.90
7143;DHT22;3613;48.902;9.204;2022-08-21T04:26:22;12.30;99.90
7143;DHT22;3613;48.902;9.204;2022-08-21T04:28:51;12.40;99.90
7143;DHT22;3613;48.902;9.204;2022-08-21T04:31:23;12.50;99.90
7143;DHT22;3613;48.902;9.204;2022-08-21T04:33:49;12.50;99.90
7143;DHT22;3613;48.902;9.204;2022-08-21T04:36:17;12.40;99.90
7143;DHT22;3613;48.902;9.204;2022-08-21T04:38:45;12.40;99.90
7143;DHT22;3613;48.902;9.204;2022-08-21T04:41:13;12.50;99.90
7143;DHT22;3613;48.902;9.204;2022-08-21T04:43:39;12.50;99.90
7143;DHT22;3613;48.902;9.204;2022-08-21T04:46:05;12.60;99.90
7143;DHT22;3613;48.902;9.204;2022-08-21T04:48:31;13.00;99.90
7143;DHT22;3613;48.902;9.204;2022-08-21T04:51:17;13.40;99.90
7143;DHT22;3613;48.902;9.204;2022-08-21T04:53:50;14.10;99.90
7143;DHT22;3613;48.902;9.204;2022-08-21T04:56:30;14.70;99.90
7143;DHT22;3613;48.902;9.204;2022-08-21T04:59:02;15.20;99.90
7143;DHT22;3613;48.902;9.204;2022-08-21T05:01:31;15.60;99.90
7143;DHT22;3613;48.902;9.204;2022-08-21T05:03:59;16.20;99.90
7143;DHT22;3613;48.902;9.204;2022-08-21T05:06:32;17.10;99.90
7143;DHT22;3613;48.902;9.204;2022-08-21T05:08:58;17.60;99.90
7143;DHT22;3613;48.902;9.204;2022-08-21T05:11:25;18.30;99.90
7143;DHT22;3613;48.902;9.204;2022-08-21T05:13:50;18.90;99.90
7143;DHT22;3613;48.902;9.204;2022-08-21T05:16:21;19.40;99.90
7143;DHT22;3613;48.902;9.204;2022-08-21T05:18:48;19.80;99.90
7143;DHT22;3613;48.902;9.204;2022-08-21T05:21:14;20.20;99.90
7143;DHT22;3613;48.902;9.204;2022-08-21T05:23:40;20.60;99.90
7143;DHT22;3613;48.902;9.204;2022-08-21T05:26:06;21.00;99.90
7143;DHT22;3613;48.902;9.204;2022-08-21T05:28:31;21.20;99.90
7143;DHT22;3613;48.902;9.204;2022-08-21T05:30:59;21.70;99.90
7143;DHT22;3613;48.902;9.204;2022-08-21T05:33:25;22.10;99.90
7143;DHT22;3613;48.902;9.204;2022-08-21T05:35:55;22.40;99.90
7143;DHT22;3613;48.902;9.204;2022-08-21T05:38:25;22.80;99.90
7143;DHT22;3613;48.902;9.204;2022-08-21T05:40:54;23.20;99.90
7143;DHT22;3613;48.902;9.204;2022-08-21T05:43:23;23.70;99.90
7143;DHT22;3613;48.902;9.204;2022-08-21T05:45:51;24.00;99.90
7143;DHT22;3613;48.902;9.204;2022-08-21T05:48:21;24.40;99.90
7143;DHT22;3613;48.902;9.204;2022-08-21T05:50:49;24.70;99.90
7143;DHT22;3613;48.902;9.204;2022-08-21T05:53:16;24.80;99.90
7143;DHT22;3613;48.902;9.204;2022-08-21T05:55:45;25.40;99.90
7143;DHT22;3613;48.902;9.204;2022-08-21T05:58:15;25.80;99.90
7143;DHT22;3613;48.902;9.204;2022-08-21T06:00:42;26.20;99.90
7143;DHT22;3613;48.902;9.204;2022-08-21T06:03:12;26.60;99.90
7143;DHT22;3613;48.902;9.204;2022-08-21T06:05:38;26.80;99.90
7143;DHT22;3613;48.902;9.204;2022-08-21T06:08:04;27.20;99.90
7143;DHT22;3613;48.902;9.204;2022-08-21T06:10:30;27.40;99.90
7143;DHT22;3613;48.902;9.204;2022-08-21T06:12:58;27.90;99.90
7143;DHT22;3613;48.902;9.204;2022-08-21T06:15:23;28.00;99.90
7143;DHT22;3613;48.902;9.204;2022-08-21T06:17:49;28.30;99.90
7143;DHT22;3613;48.902;9.204;2022-08-21T06:20:15;28.40;99.90
7143;DHT22;3613;48.902;9.204;2022-08-21T06:22:43;28.60;99.90
7143;DHT22;3613;48.902;9.204;2022-08-21T06:25:08;28.50;99.90
7143;DHT22;3613;48.902;9.204;2022-08-21T06:27:34;28.70;99.90
7143;DHT22;3613;48.902;9.204;2022-08-21T06:30:00;28.90;99.90
7143;DHT22;3613;48.902;9.204;2022-08-21T06:32:26;28.90;99.90
7143;DHT22;3613;48.902;9.204;2022-08-21T06:34:52;29.30;99.60
7143;DHT22;3613;48.902;9.204;2022-08-21T06:37:18;29.30;99.60
7143;DHT22;3613;48.902;9.204;2022-08-21T06:39:43;29.70;98.20
7143;DHT22;3613;48.902;9.204;2022-08-21T06:42:14;30.00;98.40
7143;DHT22;3613;48.902;9.204;2022-08-21T06:44:40;30.00;97.80
7143;DHT22;3613;48.902;9.204;2022-08-21T06:47:08;30.20;96.40
7143;DHT22;3613;48.902;9.204;2022-08-21T06:49:36;30.50;95.60
7143;DHT22;3613;48.902;9.204;2022-08-21T06:52:09;30.60;95.00
7143;DHT22;3613;48.902;9.204;2022-08-21T06:54:38;30.90;94.60
7143;DHT22;3613;48.902;9.204;2022-08-21T06:57:06;31.00;94.10
7143;DHT22;3613;48.902;9.204;2022-08-21T06:59:32;31.40;92.30
7143;DHT22;3613;48.902;9.204;2022-08-21T07:02:01;31.60;92.20
7143;DHT22;3613;48.902;9.204;2022-08-21T07:04:29;32.00;91.50
7143;DHT22;3613;48.902;9.204;2022-08-21T07:06:55;32.10;90.80
7143;DHT22;3613;48.902;9.204;2022-08-21T07:09:20;32.30;90.10
7143;DHT22;3613;48.902;9.204;2022-08-21T07:11:50;32.30;87.90
7143;DHT22;3613;48.902;9.204;2022-08-21T07:14:16;32.30;87.20
7143;DHT22;3613;48.902;9.204;2022-08-21T07:16:41;32.40;86.70
7143;DHT22;3613;48.902;9.204;2022-08-21T07:19:09;32.70;86.60
7143;DHT22;3613;48.902;9.204;2022-08-21T07:21:35;32.70;85.50
7143;DHT22;3613;48.902;9.204;2022-08-21T07:24:03;32.40;86.40
7143;DHT22;3613;48.902;9.204;2022-08-21T07:26:28;32.80;84.80
7143;DHT22;3613;48.902;9.204;2022-08-21T07:28:54;32.80;85.50
7143;DHT22;3613;48.902;9.204;2022-08-21T07:31:22;32.40;85.70
7143;DHT22;3613;48.902;9.204;2022-08-21T07:33:48;32.30;85.40
7143;DHT22;3613;48.902;9.204;2022-08-21T07:36:16;32.40;85.40
7143;DHT22;3613;48.902;9.204;2022-08-21T07:38:42;32.50;84.20
7143;DHT22;3613;48.902;9.204;2022-08-21T07:41:34;32.60;84.50
7143;DHT22;3613;48.902;9.204;2022-08-21T07:44:00;32.40;83.50
7143;DHT22;3613;48.902;9.204;2022-08-21T07:46:30;32.20;84.50
7143;DHT22;3613;48.902;9.204;2022-08-21T07:48:59;32.10;84.20
7143;DHT22;3613;48.902;9.204;2022-08-21T07:51:30;32.20;84.90
7143;DHT22;3613;48.902;9.204;2022-08-21T07:53:57;32.30;85.20
7143;DHT22;3613;48.902;9.204;2022-08-21T07:56:25;32.30;84.70
7143;DHT22;3613;48.902;9.204;2022-08-21T07:58:50;32.30;84.30
7143;DHT22;3613;48.902;9.204;2022-08-21T08:01:19;32.60;83.90
7143;DHT22;3613;48.902;9.204;2022-08-21T08:03:47;32.80;83.40
7143;DHT22;3613;48.902;9.204;2022-08-21T08:06:13;32.10;84.30
7143;DHT22;3613;48.902;9.204;2022-08-21T08:08:40;31.70;84.60
7143;DHT22;3613;48.902;9.204;2022-08-21T08:11:07;32.30;84.30
7143;DHT22;3613;48.902;9.204;2022-08-21T08:13:42;32.70;83.10
7143;DHT22;3613;48.902;9.204;2022-08-21T08:16:10;32.50;82.20
7143;DHT22;3613;48.902;9.204;2022-08-21T08:18:36;32.80;82.30
7143;DHT22;3613;48.902;9.204;2022-08-21T08:21:03;32.90;81.80
7143;DHT22;3613;48.902;9.204;2022-08-21T08:23:30;33.00;81.60
7143;DHT22;3613;48.902;9.204;2022-08-21T08:25:56;33.00;81.50
7143;DHT22;3613;48.902;9.204;2022-08-21T08:28:22;33.10;81.80
7143;DHT22;3613;48.902;9.204;2022-08-21T08:30:50;33.00;81.30
7143;DHT22;3613;48.902;9.204;2022-08-21T08:33:18;32.70;80.80
7143;DHT22;3613;48.902;9.204;2022-08-21T08:35:47;32.20;81.30
7143;DHT22;3613;48.902;9.204;2022-08-21T08:38:13;31.80;81.90
7143;DHT22;3613;48.902;9.204;2022-08-21T08:40:52;31.60;81.80
7143;DHT22;3613;48.902;9.204;2022-08-21T08:43:21;31.80;81.80
7143;DHT22;3613;48.902;9.204;2022-08-21T08:45:53;32.00;81.60
7143;DHT22;3613;48.902;9.204;2022-08-21T08:48:49;32.10;80.80
7143;DHT22;3613;48.902;9.204;2022-08-21T08:51:22;31.90;81.00
7143;DHT22;3613;48.902;9.204;2022-08-21T08:53:59;32.20;80.10
7143;DHT22;3613;48.902;9.204;2022-08-21T08:56:36;32.20;80.90
7143;DHT22;3613;48.902;9.204;2022-08-21T08:59:20;32.60;80.90
7143;DHT22;3613;48.902;9.204;2022-08-21T09:01:48;32.70;79.40
7143;DHT22;3613;48.902;9.204;2022-08-21T09:04:22;32.10;79.80
7143;DHT22;3613;48.902;9.204;2022-08-21T09:07:10;32.10;80.60
7143;DHT22;3613;48.902;9.204;2022-08-21T09:13:06;32.20;80.40
7143;DHT22;3613;48.902;9.204;2022-08-21T09:15:36;32.50;79.70
7143;DHT22;3613;48.902;9.204;2022-08-21T09:26:26;31.60;79.00
7143;DHT22;3613;48.902;9.204;2022-08-21T09:28:56;31.90;78.40
7143;DHT22;3613;48.902;9.204;2022-08-21T09:31:35;31.20;79.20
7143;DHT22;3613;48.902;9.204;2022-08-21T09:34:08;31.70;79.20
7143;DHT22;3613;48.902;9.204;2022-08-21T09:39:03;31.00;78.70
7143;DHT22;3613;48.902;9.204;2022-08-21T09:41:31;30.80;79.20
7143;DHT22;3613;48.902;9.204;2022-08-21T09:43:59;31.40;78.50
7143;DHT22;3613;48.902;9.204;2022-08-21T09:46:26;31.40;76.80
7143;DHT22;3613;48.902;9.204;2022-08-21T09:48:58;31.10;77.10
7143;DHT22;3613;48.902;9.204;2022-08-21T09:51:36;30.70;76.10
7143;DHT22;3613;48.902;9.204;2022-08-21T09:56:58;30.20;74.60
7143;DHT22;3613;48.902;9.204;2022-08-21T09:59:44;29.80;77.40
7143;DHT22;3613;48.902;9.204;2022-08-21T10:02:30;30.00;75.60
7143;DHT22;3613;48.902;9.204;2022-08-21T10:05:14;30.10;75.70
7143;DHT22;3613;48.902;9.204;2022-08-21T10:07:42;30.40;75.10
7143;DHT22;3613;48.902;9.204;2022-08-21T10:10:22;30.60;74.60
7143;DHT22;3613;48.902;9.204;2022-08-21T10:15:36;30.80;74.70
7143;DHT22;3613;48.902;9.204;2022-08-21T10:24:03;29.70;76.20
7143;DHT22;3613;48.902;9.204;2022-08-21T10:40:56;30.40;73.20
7143;DHT22;3613;48.902;9.204;2022-08-21T10:55:19;30.50;74.10
7143;DHT22;3613;48.902;9.204;2022-08-21T10:57:59;30.40;72.80
7143;DHT22;3613;48.902;9.204;2022-08-21T11:00:49;30.30;70.40
7143;DHT22;3613;48.902;9.204;2022-08-21T11:03:29;30.90;70.60
7143;DHT22;3613;48.902;9.204;2022-08-21T11:06:13;31.00;70.10
7143;DHT22;3613;48.902;9.204;2022-08-21T11:08:46;31.10;70.00
7143;DHT22;3613;48.902;9.204;2022-08-21T11:11:31;31.20;70.50
7143;DHT22;3613;48.902;9.204;2022-08-21T11:14:09;31.70;70.50
7143;DHT22;3613;48.902;9.204;2022-08-21T11:24:46;30.90;68.40
7143;DHT22;3613;48.902;9.204;2022-08-21T11:30:00;31.20;68.20
7143;DHT22;3613;48.902;9.204;2022-08-21T11:46:09;32.30;64.90
7143;DHT22;3613;48.902;9.204;2022-08-21T11:48:40;32.70;64.50
7143;DHT22;3613;48.902;9.204;2022-08-21T11:51:13;33.10;63.90
7143;DHT22;3613;48.902;9.204;2022-08-21T11:53:51;33.50;62.30
7143;DHT22;3613;48.902;9.204;2022-08-21T11:56:33;34.00;62.30
7143;DHT22;3613;48.902;9.204;2022-08-21T11:59:06;34.50;60.00
7143;DHT22;3613;48.902;9.204;2022-08-21T12:01:38;34.40;60.40
7143;DHT22;3613;48.902;9.204;2022-08-21T12:06:44;33.70;60.00
7143;DHT22;3613;48.902;9.204;2022-08-21T12:09:33;33.90;59.60
7143;DHT22;3613;48.902;9.204;2022-08-21T12:14:44;34.70;59.60
7143;DHT22;3613;48.902;9.204;2022-08-21T12:17:19;35.20;57.80
7143;DHT22;3613;48.902;9.204;2022-08-21T12:19:56;35.10;57.40
7143;DHT22;3613;48.902;9.204;2022-08-21T12:22:38;35.10;56.70
7143;DHT22;3613;48.902;9.204;2022-08-21T12:25:08;34.60;56.60
7143;DHT22;3613;48.902;9.204;2022-08-21T12:28:02;34.60;57.20
7143;DHT22;3613;48.902;9.204;2022-08-21T12:30:38;34.90;56.70
7143;DHT22;3613;48.902;9.204;2022-08-21T12:35:47;34.70;54.90
7143;DHT22;3613;48.902;9.204;2022-08-21T12:40:57;34.40;55.60
7143;DHT22;3613;48.902;9.204;2022-08-21T12:43:37;34.80;55.90
7143;DHT22;3613;48.902;9.204;2022-08-21T12:46:04;35.60;54.30
7143;DHT22;3613;48.902;9.204;2022-08-21T12:48:48;35.80;53.90
7143;DHT22;3613;48.902;9.204;2022-08-21T12:51:29;35.60;54.10
7143;DHT22;3613;48.902;9.204;2022-08-21T12:53:58;36.20;53.50
7143;DHT22;3613;48.902;9.204;2022-08-21T12:56:28;35.90;52.70
7143;DHT22;3613;48.902;9.204;2022-08-21T12:59:10;35.50;53.50
7143;DHT22;3613;48.902;9.204;2022-08-21T13:01:48;35.70;52.60
7143;DHT22;3613;48.902;9.204;2022-08-21T13:04:34;34.40;52.80
7143;DHT22;3613;48.902;9.204;2022-08-21T13:07:13;34.50;54.30
7143;DHT22;3613;48.902;9.204;2022-08-21T13:09:49;34.80;53.40
7143;DHT22;3613;48.902;9.204;2022-08-21T13:12:20;34.80;54.00
7143;DHT22;3613;48.902;9.204;2022-08-21T13:14:47;35.00;53.40
7143;DHT22;3613;48.902;9.204;2022-08-21T13:17:18;34.20;53.70
7143;DHT22;3613;48.902;9.204;2022-08-21T13:20:18;33.40;53.60
7143;DHT22;3613;48.902;9.204;2022-08-21T13:22:45;32.10;55.70
7143;DHT22;3613;48.902;9.204;2022-08-21T13:25:17;31.50;56.70
7143;DHT22;3613;48.902;9.204;2022-08-21T13:28:07;30.90;57.70
7143;DHT22;3613;48.902;9.204;2022-08-21T13:30:37;30.20;59.40
7143;DHT22;3613;48.902;9.204;2022-08-21T13:33:05;29.70;60.60
7143;DHT22;3613;48.902;9.204;2022-08-21T13:36:03;29.50;59.40
7143;DHT22;3613;48.902;9.204;2022-08-21T13:38:34;29.00;60.20
7143;DHT22;3613;48.902;9.204;2022-08-21T13:43:45;28.80;60.10
7143;DHT22;3613;48.902;9.204;2022-08-21T13:46:16;28.40;60.70
7143;DHT22;3613;48.902;9.204;2022-08-21T13:48:43;28.40;61.10
7143;DHT22;3613;48.902;9.204;2022-08-21T13:51:12;28.30;62.00
7143;DHT22;3613;48.902;9.204;2022-08-21T13:56:06;28.50;63.00
7143;DHT22;3613;48.902;9.204;2022-08-21T13:58:46;28.60;63.40
7143;DHT22;3613;48.902;9.204;2022-08-21T14:01:57;28.60;62.50
7143;DHT22;3613;48.902;9.204;2022-08-21T14:04:26;28.50;62.90
7143;DHT22;3613;48.902;9.204;2022-08-21T14:06:53;28.50;62.50
7143;DHT22;3613;48.902;9.204;2022-08-21T14:11:55;28.60;61.80
7143;DHT22;3613;48.902;9.204;2022-08-21T14:14:32;28.50;62.80
7143;DHT22;3613;48.902;9.204;2022-08-21T14:17:01;28.20;61.40
7143;DHT22;3613;48.902;9.204;2022-08-21T14:19:38;28.20;62.00
7143;DHT22;3613;48.902;9.204;2022-08-21T14:27:38;28.30;61.50
7143;DHT22;3613;48.902;9.204;2022-08-21T14:30:29;28.30;62.00
7143;DHT22;3613;48.902;9.204;2022-08-21T14:32:56;28.00;62.40
7143;DHT22;3613;48.902;9.204;2022-08-21T14:35:22;27.90;61.70
7143;DHT22;3613;48.902;9.204;2022-08-21T14:37:49;27.80;62.30
7143;DHT22;3613;48.902;9.204;2022-08-21T14:40:22;27.70;63.50
7143;DHT22;3613;48.902;9.204;2022-08-21T14:42:48;27.70;62.60
7143;DHT22;3613;48.902;9.204;2022-08-21T14:45:20;27.70;62.20
7143;DHT22;3613;48.902;9.204;2022-08-21T14:47:51;27.60;62.90
7143;DHT22;3613;48.902;9.204;2022-08-21T14:50:19;27.70;62.30
7143;DHT22;3613;48.902;9.204;2022-08-21T14:52:45;27.50;62.30
7143;DHT22;3613;48.902;9.204;2022-08-21T14:55:11;27.50;61.90
7143;DHT22;3613;48.902;9.204;2022-08-21T14:57:40;27.40;61.60
7143;DHT22;3613;48.902;9.204;2022-08-21T15:00:06;27.50;62.50
7143;DHT22;3613;48.902;9.204;2022-08-21T15:02:34;27.70;62.80
7143;DHT22;3613;48.902;9.204;2022-08-21T15:05:00;27.60;62.20
7143;DHT22;3613;48.902;9.204;2022-08-21T15:07:28;27.70;61.90
7143;DHT22;3613;48.902;9.204;2022-08-21T15:09:56;27.60;62.20
7143;DHT22;3613;48.902;9.204;2022-08-21T15:12:24;27.60;61.70
7143;DHT22;3613;48.902;9.204;2022-08-21T15:14:50;27.70;62.40
7143;DHT22;3613;48.902;9.204;2022-08-21T15:17:16;27.40;62.40
7143;DHT22;3613;48.902;9.204;2022-08-21T15:19:44;27.40;63.50
7143;DHT22;3613;48.902;9.204;2022-08-21T15:22:12;27.40;62.70
7143;DHT22;3613;48.902;9.204;2022-08-21T15:24:40;27.40;62.80
7143;DHT22;3613;48.902;9.204;2022-08-21T15:27:07;27.30;62.60
7143;DHT22;3613;48.902;9.204;2022-08-21T15:29:36;27.40;63.30
7143;DHT22;3613;48.902;9.204;2022-08-21T15:34:44;27.50;62.60
7143;DHT22;3613;48.902;9.204;2022-08-21T15:37:12;27.40;62.70
7143;DHT22;3613;48.902;9.204;2022-08-21T15:39:38;27.40;63.30
7143;DHT22;3613;48.902;9.204;2022-08-21T15:42:04;27.30;63.50
7143;DHT22;3613;48.902;9.204;2022-08-21T15:44:32;27.30;63.70
7143;DHT22;3613;48.902;9.204;2022-08-21T15:47:11;27.30;64.40
7143;DHT22;3613;48.902;9.204;2022-08-21T15:49:37;27.30;64.00
7143;DHT22;3613;48.902;9.204;2022-08-21T15:52:02;27.30;63.80
7143;DHT22;3613;48.902;9.204;2022-08-21T15:54:30;27.30;63.30
7143;DHT22;3613;48.902;9.204;2022-08-21T15:56:56;27.20;64.20
7143;DHT22;3613;48.902;9.204;2022-08-21T15:59:22;27.20;64.60
7143;DHT22;3613;48.902;9.204;2022-08-21T16:01:52;27.10;65.30
7143;DHT22;3613;48.902;9.204;2022-08-21T16:04:25;27.10;65.30
7143;DHT22;3613;48.902;9.204;2022-08-21T16:06:51;27.10;64.70
7143;DHT22;3613;48.902;9.204;2022-08-21T16:09:17;27.00;65.30
7143;DHT22;3613;48.902;9.204;2022-08-21T16:11:43;26.90;64.90
7143;DHT22;3613;48.902;9.204;2022-08-21T16:14:14;26.90;65.60
7143;DHT22;3613;48.902;9.204;2022-08-21T16:16:42;26.90;65.40
7143;DHT22;3613;48.902;9.204;2022-08-21T16:19:09;26.80;65.70
7143;DHT22;3613;48.902;9.204;2022-08-21T16:21:35;26.60;65.90
7143;DHT22;3613;48.902;9.204;2022-08-21T16:24:01;26.60;66.50
7143;DHT22;3613;48.902;9.204;2022-08-21T16:26:30;26.50;66.80
7143;DHT22;3613;48.902;9.204;2022-08-21T16:29:00;26.40;67.10
7143;DHT22;3613;48.902;9.204;2022-08-21T16:31:27;26.40;66.90
7143;DHT22;3613;48.902;9.204;2022-08-21T16:33:54;26.50;66.30
7143;DHT22;3613;48.902;9.204;2022-08-21T16:36:20;26.40;66.60
7143;DHT22;3613;48.902;9.204;2022-08-21T16:38:51;26.40;66.70
7143;DHT22;3613;48.902;9.204;2022-08-21T16:41:19;26.40;67.20
7143;DHT22;3613;48.902;9.204;2022-08-21T16:43:48;26.30;68.40
7143;DHT22;3613;48.902;9.204;2022-08-21T16:46:14;26.20;68.90
7143;DHT22;3613;48.902;9.204;2022-08-21T16:48:41;26.20;68.50
7143;DHT22;3613;48.902;9.204;2022-08-21T16:51:09;26.10;69.40
7143;DHT22;3613;48.902;9.204;2022-08-21T16:53:35;26.10;68.20
7143;DHT22;3613;48.902;9.204;2022-08-21T16:56:03;26.00;68.80
7143;DHT22;3613;48.902;9.204;2022-08-21T16:58:31;26.00;69.90
7143;DHT22;3613;48.902;9.204;2022-08-21T17:00:59;25.90;69.70
7143;DHT22;3613;48.902;9.204;2022-08-21T17:03:32;26.00;69.50
7143;DHT22;3613;48.902;9.204;2022-08-21T17:05:59;25.90;69.20
7143;DHT22;3613;48.902;9.204;2022-08-21T17:08:26;25.90;68.50
7143;DHT22;3613;48.902;9.204;2022-08-21T17:10:54;25.90;69.70
7143;DHT22;3613;48.902;9.204;2022-08-21T17:13:20;25.80;68.70
7143;DHT22;3613;48.902;9.204;2022-08-21T17:15:46;25.80;68.80
7143;DHT22;3613;48.902;9.204;2022-08-21T17:18:17;25.80;69.40
7143;DHT22;3613;48.902;9.204;2022-08-21T17:20:46;25.80;69.40
7143;DHT22;3613;48.902;9.204;2022-08-21T17:23:13;25.70;70.50
7143;DHT22;3613;48.902;9.204;2022-08-21T17:25:48;25.70;69.30
7143;DHT22;3613;48.902;9.204;2022-08-21T17:28:19;25.60;69.70
7143;DHT22;3613;48.902;9.204;2022-08-21T17:30:54;25.50;70.60
7143;DHT22;3613;48.902;9.204;2022-08-21T17:33:24;25.40;70.20
7143;DHT22;3613;48.902;9.204;2022-08-21T17:35:51;25.40;69.90
7143;DHT22;3613;48.902;9.204;2022-08-21T17:38:16;25.40;69.90
7143;DHT22;3613;48.902;9.204;2022-08-21T17:40:42;25.30;70.30
7143;DHT22;3613;48.902;9.204;2022-08-21T17:43:09;25.20;70.00
7143;DHT22;3613;48.902;9.204;2022-08-21T17:45:35;25.20;69.80
7143;DHT22;3613;48.902;9.204;2022-08-21T17:48:01;25.10;70.20
7143;DHT22;3613;48.902;9.204;2022-08-21T17:50:27;24.90;71.10
7143;DHT22;3613;48.902;9.204;2022-08-21T17:52:55;24.70;71.60
7143;DHT22;3613;48.902;9.204;2022-08-21T17:55:21;24.60;71.40
7143;DHT22;3613;48.902;9.204;2022-08-21T17:57:49;24.40;71.80
7143;DHT22;3613;48.902;9.204;2022-08-21T18:00:18;24.30;72.50
7143;DHT22;3613;48.902;9.204;2022-08-21T18:02:45;24.10;73.80